Dundee, Texas
Current Conditions -  °F | °C
As of 10:55 AM on Friday 28 Nov 2014 (Local Time) from KCWC Reporting Station
Clear Clear  
Wind Chill: 15°   Ceiling: Unl
Heat Index: 15°   Visibility: 10mi
Dew Point:   Wind: 13mph
Humidity: 47%   Direction: 210°SSW
Pressure: 30.12"   Gusts: 21mph
Location:  33.6107°N, 98.6955°W
Report Text: KCWC 281655Z AUTO 21011G18KT 10SM CLR 15/04 A3012 RMK AO2 T01510037
Loading
Personal Weather Stations






























Interactive Weather Map New forecast layout! Learn more

10-Day Weather Forecast

Advertisements
Track Severe Weather on mobile